Time;durP1;ratioP1;P1;durP2;ratioP2;P2;SDS_P1;SDS_P2;PMS_P1;PMS_P2;Temp;Humidity;BMP_temperature;BMP_pressure;BME280_temperature;BME280_humidity;BME280_pressure;Samples;Min_cycle;Max_cycle;Signal;HPM_P1;HPM_P2
2022/10/06 00:02:02;;;;;;;5.63;4.77;;;9.10;99.90;9.90;97719.00;;;;4953850;28;20671;-85
2022/10/06 00:04:51;;;;;;;6.83;5.33;;;9.00;99.90;10.50;97713.00;;;;4952204;29;20236;-85
2022/10/06 00:07:40;;;;;;;5.17;4.67;;;9.20;99.90;10.80;97717.00;;;;4953112;29;20210;-85
2022/10/06 00:10:30;;;;;;;9.30;5.27;;;9.40;99.90;10.90;97720.00;;;;4953454;28;20212;-86
2022/10/06 00:13:18;;;;;;;7.77;4.33;;;9.50;99.90;10.10;97717.00;;;;4953547;28;20235;-84
2022/10/06 00:16:10;;;;;;;5.67;4.40;;;9.30;99.90;10.10;97710.00;;;;4952992;29;20248;-86
2022/10/06 00:18:59;;;;;;;5.00;4.50;;;9.30;99.90;9.90;97711.00;;;;4952063;29;20231;-85
2022/10/06 00:21:48;;;;;;;6.87;4.80;;;9.20;99.90;9.80;97708.00;;;;4953672;28;20240;-85
2022/10/06 00:24:37;;;;;;;7.27;4.63;;;9.10;99.90;9.80;97701.00;;;;4953193;28;20223;-84
2022/10/06 00:27:33;;;;;;;14.80;4.97;;;9.00;99.90;10.00;97709.00;;;;4954022;28;20208;-84
2022/10/06 00:30:24;;;;;;;7.37;4.73;;;9.00;99.90;9.80;97705.00;;;;4952592;28;20650;-86
2022/10/06 00:33:16;;;;;;;5.07;4.50;;;8.90;99.90;9.60;97710.00;;;;4950033;28;20730;-86
2022/10/06 00:36:06;;;;;;;6.20;3.77;;;8.80;99.90;9.70;97708.00;;;;4951928;28;20220;-85
2022/10/06 00:38:55;;;;;;;6.70;4.63;;;8.80;99.90;9.60;97693.00;;;;4952302;28;20230;-85
2022/10/06 00:41:44;;;;;;;5.50;4.43;;;8.70;99.90;10.10;97695.00;;;;4953720;29;20207;-85
2022/10/06 00:44:34;;;;;;;5.33;4.60;;;8.80;99.90;10.30;97701.00;;;;4952415;28;20227;-85
2022/10/06 00:47:24;;;;;;;4.80;4.40;;;9.00;99.90;9.80;97700.00;;;;4952712;28;20259;-84
2022/10/06 00:50:14;;;;;;;4.73;4.23;;;8.90;99.90;9.70;97704.00;;;;4953775;28;20240;-86
2022/10/06 00:53:06;;;;;;;7.63;4.07;;;8.90;99.90;9.50;97709.00;;;;4953565;28;20271;-86
2022/10/06 00:55:56;;;;;;;4.27;3.87;;;8.80;99.90;9.80;97701.00;;;;4952083;28;20208;-85
2022/10/06 00:58:44;;;;;;;8.80;4.90;;;8.80;99.90;10.10;97703.00;;;;4951081;28;20262;-85
2022/10/06 01:01:35;;;;;;;5.63;4.60;;;8.90;99.90;10.40;97702.00;;;;4952617;28;20284;-86
2022/10/06 01:04:25;;;;;;;7.17;4.33;;;9.00;99.90;9.70;97690.00;;;;4952316;28;20262;-86
2022/10/06 01:07:14;;;;;;;5.60;5.07;;;9.00;99.90;9.50;97698.00;;;;4950971;28;20204;-85
2022/10/06 01:10:03;;;;;;;8.30;5.40;;;8.80;99.90;9.80;97708.00;;;;4949673;28;20211;-84
2022/10/06 01:12:52;;;;;;;7.47;5.43;;;8.80;99.90;10.40;97704.00;;;;4947799;28;20305;-85
2022/10/06 01:15:48;;;;;;;6.83;4.83;;;9.00;99.90;10.40;97706.00;;;;4953174;28;20239;-85
2022/10/06 01:18:41;;;;;;;6.00;5.33;;;9.10;99.90;10.20;97699.00;;;;4944849;28;20206;-85
2022/10/06 01:21:37;;;;;;;6.13;4.73;;;9.10;99.90;10.40;97697.00;;;;4943255;28;20629;-84
2022/10/06 01:24:27;;;;;;;6.00;4.67;;;9.20;99.90;10.10;97701.00;;;;4951369;28;20267;-86
2022/10/06 01:27:16;;;;;;;4.23;3.83;;;9.20;99.90;9.90;97697.00;;;;4951737;28;20215;-85
2022/10/06 01:30:08;;;;;;;5.40;4.53;;;9.10;99.90;10.20;97697.00;;;;4951713;28;20200;-85
2022/10/06 01:32:57;;;;;;;4.93;4.43;;;9.00;99.90;10.10;97701.00;;;;4948030;28;20367;-85
2022/10/06 01:35:50;;;;;;;8.67;4.43;;;9.00;99.90;10.10;97702.00;;;;4949207;28;20200;-84
2022/10/06 01:38:38;;;;;;;5.37;4.13;;;9.00;99.90;9.40;97701.00;;;;4945302;29;20211;-85
2022/10/06 01:41:32;;;;;;;11.87;5.57;;;8.90;99.90;9.20;97693.00;;;;4951314;29;20196;-86
2022/10/06 01:44:20;;;;;;;4.30;3.83;;;8.70;99.90;9.40;97698.00;;;;4951876;28;20235;-85
2022/10/06 01:47:09;;;;;;;6.03;3.87;;;8.70;99.90;9.50;97699.00;;;;4952428;28;20208;-86
2022/10/06 01:49:58;;;;;;;5.77;5.17;;;8.60;99.90;9.30;97693.00;;;;4952407;28;20203;-85
2022/10/06 01:52:47;;;;;;;5.07;4.37;;;8.60;99.90;9.20;97692.00;;;;4952810;28;20241;-84
2022/10/06 01:55:36;;;;;;;5.47;4.50;;;8.50;99.90;9.70;97691.00;;;;4941865;28;20544;-85
2022/10/06 01:58:26;;;;;;;6.40;4.37;;;8.60;99.90;9.70;97699.00;;;;4951909;28;20278;-86
2022/10/06 02:01:15;;;;;;;5.57;4.40;;;8.70;99.90;9.80;97685.00;;;;4951411;28;20204;-84
2022/10/06 02:04:04;;;;;;;6.00;4.73;;;8.80;99.90;9.80;97683.00;;;;4952196;28;20223;-84
2022/10/06 02:06:54;;;;;;;7.50;5.07;;;8.80;99.90;9.80;97691.00;;;;4950715;28;20204;-85
2022/10/06 02:09:43;;;;;;;8.03;5.80;;;8.80;99.90;9.60;97692.00;;;;4949315;28;20275;-85
2022/10/06 02:12:33;;;;;;;7.43;4.10;;;8.80;99.90;9.60;97681.00;;;;4950467;28;20228;-85
2022/10/06 02:15:25;;;;;;;8.07;5.40;;;8.70;99.90;9.60;97676.00;;;;4942496;29;20200;-85
2022/10/06 02:18:14;;;;;;;5.20;4.40;;;8.60;99.90;9.90;97683.00;;;;4951138;28;20227;-85
2022/10/06 02:21:04;;;;;;;6.60;4.57;;;8.70;99.90;10.20;97689.00;;;;4950678;28;20204;-85
2022/10/06 02:23:52;;;;;;;6.27;5.00;;;8.80;99.90;10.00;97685.00;;;;4949306;28;20468;-86
2022/10/06 02:26:41;;;;;;;7.00;5.20;;;8.90;99.90;9.60;97681.00;;;;4945153;29;20204;-85
2022/10/06 02:29:30;;;;;;;4.73;3.80;;;8.80;99.90;9.40;97681.00;;;;4951119;28;20212;-85
2022/10/06 02:32:20;;;;;;;4.87;4.37;;;8.70;99.90;9.40;97686.00;;;;4951821;28;20515;-85
2022/10/06 02:35:11;;;;;;;9.27;4.53;;;8.60;99.90;9.60;97689.00;;;;4957321;28;20216;-86
2022/10/06 02:38:00;;;;;;;6.13;4.40;;;8.60;99.90;9.70;97686.00;;;;4951268;28;20200;-85
2022/10/06 02:40:48;;;;;;;8.60;4.30;;;8.60;99.90;9.50;97690.00;;;;4951999;29;20204;-85
2022/10/06 02:43:37;;;;;;;11.17;4.97;;;8.60;99.90;9.70;97694.00;;;;4951047;28;20687;-85
2022/10/06 02:46:26;;;;;;;6.03;5.43;;;8.60;99.90;9.80;97697.00;;;;4951032;28;20223;-84
2022/10/06 02:49:16;;;;;;;4.77;4.37;;;8.60;99.90;10.00;97690.00;;;;4948413;29;20204;-85
2022/10/06 02:52:05;;;;;;;7.60;4.43;;;8.70;99.90;9.70;97692.00;;;;4951109;29;20690;-85
2022/10/06 02:54:54;;;;;;;5.80;4.17;;;8.70;99.90;9.20;97697.00;;;;4950703;29;20706;-85
2022/10/06 02:57:43;;;;;;;6.73;5.47;;;8.60;99.90;9.30;97697.00;;;;4951251;29;20211;-84
2022/10/06 03:00:32;;;;;;;6.87;5.27;;;8.50;99.90;9.40;97710.00;;;;4951605;28;20283;-86
2022/10/06 03:03:20;;;;;;;6.67;4.73;;;8.50;99.90;9.20;97708.00;;;;4950421;28;20268;-86
2022/10/06 03:06:21;;;;;;;7.00;4.60;;;8.40;99.90;9.00;97698.00;;;;4951323;28;20212;-85
2022/10/06 03:09:10;;;;;;;4.43;4.00;;;8.30;99.90;9.00;97711.00;;;;4947986;28;20586;-85
2022/10/06 03:11:59;;;;;;;4.53;4.13;;;8.30;99.90;9.40;97714.00;;;;4949890;28;20208;-85
2022/10/06 03:14:48;;;;;;;6.83;4.60;;;8.30;99.90;9.40;97712.00;;;;4951122;29;20600;-86
2022/10/06 03:17:36;;;;;;;6.97;4.30;;;8.40;99.90;9.40;97717.00;;;;4988154;23;20249;-85
2022/10/06 03:20:25;;;;;;;9.23;5.00;;;8.40;99.90;9.30;97716.00;;;;5023461;28;20249;-85
2022/10/06 03:23:15;;;;;;;4.67;4.27;;;8.40;99.90;9.00;97722.00;;;;5022294;28;20710;-85
2022/10/06 03:26:04;;;;;;;6.87;4.93;;;8.30;99.90;8.90;97717.00;;;;5030403;28;20298;-86
2022/10/06 03:28:52;;;;;;;6.37;5.23;;;8.30;99.90;9.50;97716.00;;;;5030167;28;20687;-84
2022/10/06 03:31:42;;;;;;;5.27;4.67;;;8.30;99.90;9.70;97719.00;;;;5033915;28;20205;-87
2022/10/06 03:34:30;;;;;;;8.57;4.77;;;8.60;99.90;9.90;97729.00;;;;5031216;28;20225;-85
2022/10/06 03:37:19;;;;;;;5.20;4.70;;;8.70;99.90;10.10;97721.00;;;;5025686;28;20197;-86
2022/10/06 03:40:10;;;;;;;8.83;5.17;;;8.80;99.90;9.70;97722.00;;;;5033641;28;20681;-85
2022/10/06 03:42:59;;;;;;;4.73;4.23;;;8.80;99.90;9.20;97730.00;;;;5027102;28;20201;-87
2022/10/06 03:45:56;;;;;;;9.13;4.50;;;8.70;99.90;9.70;97737.00;;;;5034982;28;20209;-87
2022/10/06 03:48:46;;;;;;;6.90;5.43;;;8.60;99.90;10.10;97739.00;;;;5034995;28;20228;-86
2022/10/06 03:51:38;;;;;;;6.67;4.67;;;8.70;99.90;9.60;97732.00;;;;5033811;28;20208;-85
2022/10/06 03:54:27;;;;;;;7.97;4.50;;;8.70;99.90;9.40;97747.00;;;;5041227;28;20323;-87
2022/10/06 03:57:17;;;;;;;7.33;4.23;;;8.60;99.90;9.40;97746.00;;;;5030632;28;20201;-86
2022/10/06 04:00:07;;;;;;;5.37;4.87;;;8.60;99.90;9.20;97739.00;;;;5034737;28;20206;-86
2022/10/06 04:02:55;;;;;;;4.97;4.40;;;8.50;99.90;9.00;97747.00;;;;5028537;28;20280;-85
2022/10/06 04:05:54;;;;;;;5.17;4.13;;;8.40;99.90;9.20;97743.00;;;;5034592;28;20948;-86
2022/10/06 04:08:43;;;;;;;4.63;3.87;;;8.30;99.90;9.30;97746.00;;;;5033124;28;20221;-85
2022/10/06 04:11:36;;;;;;;8.30;4.27;;;8.40;99.90;9.40;97747.00;;;;5027879;28;20304;-85
2022/10/06 04:14:26;;;;;;;6.17;4.27;;;8.50;99.90;10.00;97750.00;;;;5023021;28;20708;-85
2022/10/06 04:17:15;;;;;;;4.27;3.87;;;8.60;99.90;10.00;97747.00;;;;5025555;28;20208;-88
2022/10/06 04:20:04;;;;;;;5.57;4.43;;;8.80;99.90;10.10;97759.00;;;;5020866;28;20197;-85
2022/10/06 04:22:53;;;;;;;7.30;6.03;;;8.90;99.90;10.40;97755.00;;;;5019659;28;20285;-85
2022/10/06 04:25:42;;;;;;;6.37;4.23;;;9.10;99.90;10.20;97760.00;;;;5019522;28;20575;-87
2022/10/06 04:28:30;;;;;;;6.87;4.90;;;9.10;99.90;9.50;97759.00;;;;5027866;28;20721;-87
2022/10/06 04:31:23;;;;;;;5.43;4.93;;;9.00;99.90;9.60;97749.00;;;;5025202;28;20287;-86
2022/10/06 04:34:13;;;;;;;6.43;4.40;;;8.80;99.90;9.40;97766.00;;;;5023947;28;20228;-85
2022/10/06 04:37:02;;;;;;;4.17;3.80;;;8.70;99.90;8.90;97765.00;;;;5018908;28;20197;-86
2022/10/06 04:39:51;;;;;;;4.17;3.77;;;8.50;99.90;9.20;97770.00;;;;5027869;28;20236;-86
2022/10/06 04:42:40;;;;;;;4.30;3.53;;;8.30;99.90;9.50;97767.00;;;;5028438;28;20193;-88
2022/10/06 04:45:29;;;;;;;5.80;4.77;;;8.40;99.90;9.90;97773.00;;;;5024776;28;20224;-87
2022/10/06 04:48:19;;;;;;;6.57;4.17;;;8.60;99.90;10.10;97775.00;;;;5012275;28;20232;-87
2022/10/06 04:51:11;;;;;;;5.47;4.43;;;8.80;99.90;10.10;97781.00;;;;5022321;28;20202;-86
2022/10/06 04:54:01;;;;;;;9.50;4.47;;;8.90;99.90;9.50;97771.00;;;;5021689;28;20247;-87
2022/10/06 04:56:50;;;;;;;7.00;4.50;;;8.80;99.90;9.30;97769.00;;;;5026734;28;20282;-87
2022/10/06 05:02:46;;;;;;;7.43;3.87;;;8.60;99.90;9.50;97778.00;;;;5020021;28;20207;-88
2022/10/06 05:05:36;;;;;;;9.47;4.50;;;8.60;99.90;9.10;97786.00;;;;5018237;28;20626;-87
2022/10/06 05:08:25;;;;;;;4.17;3.60;;;8.50;99.90;8.90;97778.00;;;;5022609;28;20739;-88
2022/10/06 05:11:14;;;;;;;4.70;4.20;;;8.30;99.90;9.00;97784.00;;;;5024226;28;20280;-89
2022/10/06 05:14:04;;;;;;;5.07;4.20;;;8.30;99.90;9.20;97799.00;;;;5023500;28;20242;-87
2022/10/06 05:16:53;;;;;;;6.50;4.13;;;8.30;99.90;8.80;97791.00;;;;5026951;28;20206;-88
2022/10/06 05:19:42;;;;;;;5.30;3.67;;;8.20;99.90;8.60;97796.00;;;;5021715;28;20217;-88
2022/10/06 05:22:32;;;;;;;7.60;4.27;;;8.10;99.90;8.80;97804.00;;;;5024711;28;20236;-88
2022/10/06 05:25:21;;;;;;;10.47;3.50;;;8.10;99.90;9.00;97808.00;;;;5023887;28;20233;-88
2022/10/06 05:28:09;;;;;;;5.70;3.87;;;8.10;99.90;9.30;97803.00;;;;5020646;28;20605;-88
2022/10/06 05:31:00;;;;;;;9.17;4.03;;;8.10;99.90;9.70;97809.00;;;;5027831;28;20189;-87
2022/10/06 05:33:49;;;;;;;5.73;3.93;;;8.20;99.90;10.00;97813.00;;;;5027112;28;20224;-87
2022/10/06 05:36:38;;;;;;;5.40;4.67;;;8.40;99.90;9.90;97813.00;;;;5026138;28;20200;-87
2022/10/06 05:39:28;;;;;;;3.73;3.40;;;8.60;99.90;9.40;97817.00;;;;5020931;28;20213;-88
2022/10/06 05:42:17;;;;;;;6.87;4.00;;;8.50;99.90;9.60;97815.00;;;;5017174;28;20209;-87
2022/10/06 05:45:07;;;;;;;7.53;4.27;;;8.60;99.90;9.40;97820.00;;;;5025399;28;20209;-88
2022/10/06 05:47:56;;;;;;;5.47;4.60;;;8.50;99.90;9.50;97826.00;;;;5014202;28;20283;-89
2022/10/06 05:50:45;;;;;;;8.07;3.30;;;8.50;99.90;9.50;97833.00;;;;5021558;28;20209;-88
2022/10/06 05:53:36;;;;;;;5.37;3.37;;;8.60;99.90;9.30;97838.00;;;;5019706;28;20202;-88
2022/10/06 05:56:28;;;;;;;6.30;3.47;;;8.60;99.90;9.40;97829.00;;;;5021579;28;20233;-89
2022/10/06 05:59:16;;;;;;;4.30;3.60;;;8.60;99.90;9.60;97825.00;;;;5018734;28;20722;-89
2022/10/06 06:02:05;;;;;;;4.50;3.93;;;8.60;99.90;10.00;97842.00;;;;5018439;28;20200;-88
2022/10/06 06:04:54;;;;;;;6.63;3.83;;;8.70;99.90;10.30;97843.00;;;;5026711;28;20217;-88
2022/10/06 06:07:43;;;;;;;4.13;3.73;;;8.90;99.90;10.10;97850.00;;;;5026221;28;20887;-89
2022/10/06 06:10:32;;;;;;;5.13;3.43;;;9.10;99.90;9.90;97853.00;;;;5027207;28;20230;-91
2022/10/06 06:13:23;;;;;;;14.93;4.03;;;7.70;99.90;9.80;97867.00;;;;5025870;28;20202;-87
2022/10/06 06:16:15;;;;;;;4.50;3.13;;;9.20;99.90;10.20;97864.00;;;;5016614;28;20284;-89
2022/10/06 06:19:04;;;;;;;4.17;2.93;;;9.20;99.90;10.20;97858.00;;;;5029724;28;20224;-89
2022/10/06 06:21:53;;;;;;;4.53;3.57;;;9.30;99.90;10.50;97875.00;;;;5029719;28;20492;-89
2022/10/06 06:24:42;;;;;;;4.57;3.70;;;9.40;99.90;10.80;97878.00;;;;5015131;28;20210;-89
2022/10/06 06:27:31;;;;;;;4.27;3.80;;;9.60;99.90;10.60;97873.00;;;;5024393;28;20646;-88
2022/10/06 06:30:21;;;;;;;5.90;3.03;;;9.60;99.90;10.60;97880.00;;;;5024332;28;20243;-92
2022/10/06 06:33:10;;;;;;;7.87;3.27;;;9.70;99.90;10.40;97870.00;;;;5022571;28;20221;-88
2022/10/06 06:36:00;;;;;;;3.30;3.00;;;9.70;99.90;10.60;97888.00;;;;5027095;28;20698;-91
2022/10/06 06:38:51;;;;;;;5.10;3.43;;;9.80;99.90;10.80;97888.00;;;;5021624;28;20233;-88
2022/10/06 06:41:43;;;;;;;6.67;3.43;;;9.90;99.90;10.80;97879.00;;;;5030734;28;20209;-89
2022/10/06 06:44:33;;;;;;;5.13;3.27;;;9.90;99.90;11.00;97895.00;;;;5032384;28;20228;-89
2022/10/06 06:47:24;;;;;;;6.53;3.57;;;10.00;99.90;10.80;97899.00;;;;5017128;28;20233;-87
2022/10/06 06:50:16;;;;;;;14.57;8.67;;;10.00;99.90;11.10;97898.00;;;;5030366;28;20205;-89
2022/10/06 06:53:06;;;;;;;13.53;7.20;;;10.10;99.90;11.40;97900.00;;;;5031308;28;20201;-89
2022/10/06 06:55:59;;;;;;;10.30;5.43;;;10.30;99.90;11.50;97902.00;;;;5032573;28;20221;-90
2022/10/06 06:58:48;;;;;;;7.70;5.83;;;10.40;99.90;11.80;97912.00;;;;5034406;28;20252;-88
2022/10/06 07:01:43;;;;;;;9.73;4.90;;;10.60;99.90;11.80;97907.00;;;;5024659;28;20719;-90
2022/10/06 07:04:36;;;;;;;7.77;4.70;;;10.70;99.90;12.10;97905.00;;;;5031771;28;20748;-88
2022/10/06 07:07:24;;;;;;;4.13;3.67;;;10.80;99.90;12.20;97910.00;;;;5032257;28;20248;-89
2022/10/06 07:10:13;;;;;;;7.77;5.00;;;11.00;99.90;12.80;97918.00;;;;5026626;28;20212;-89
2022/10/06 07:13:02;;;;;;;6.40;5.50;;;11.20;99.90;13.40;97917.00;;;;5019748;28;20209;-88
2022/10/06 07:25:25;;;;;;;5.97;4.67;;;12.00;99.90;13.50;97921.00;;;;5032388;28;20217;-88
2022/10/06 07:28:15;;;;;;;7.43;5.97;;;12.20;99.90;13.80;97931.00;;;;5032357;28;20263;-88
2022/10/06 07:31:05;;;;;;;8.70;6.23;;;12.30;99.90;14.00;97940.00;;;;5034612;28;20299;-88
2022/10/06 07:33:54;;;;;;;6.40;4.90;;;12.50;99.90;13.90;97928.00;;;;5035856;28;20204;-90
2022/10/06 07:36:45;;;;;;;7.33;5.17;;;12.60;99.90;14.00;97939.00;;;;5040133;28;20428;-90
2022/10/06 07:39:35;;;;;;;5.93;5.10;;;12.60;99.90;14.20;97937.00;;;;5036546;28;20240;-89
2022/10/06 07:42:24;;;;;;;8.33;4.67;;;12.70;99.90;14.70;97930.00;;;;5014860;28;20206;-88
2022/10/06 07:48:22;;;;;;;9.90;5.60;;;13.20;99.90;15.70;97952.00;;;;5032006;28;20221;-89
2022/10/06 07:51:15;;;;;;;9.50;5.80;;;13.60;99.90;15.00;97954.00;;;;5034130;28;20198;-89
2022/10/06 07:54:05;;;;;;;7.97;5.43;;;13.70;99.90;15.40;97957.00;;;;5031431;28;20264;-89
2022/10/06 07:56:56;;;;;;;10.83;4.97;;;13.80;99.90;15.40;97957.00;;;;5023072;28;20242;-89
2022/10/06 07:59:44;;;;;;;5.63;4.47;;;13.90;99.90;15.90;97940.00;;;;5025356;28;20263;-89
2022/10/06 08:02:33;;;;;;;6.30;4.67;;;14.10;99.90;15.90;97959.00;;;;5032271;28;20267;-89
2022/10/06 08:05:23;;;;;;;7.90;4.80;;;14.30;99.90;15.70;97957.00;;;;5032468;28;20208;-90
2022/10/06 08:08:13;;;;;;;8.40;6.03;;;14.30;99.90;15.90;97966.00;;;;5031861;28;20251;-89
2022/10/06 08:11:03;;;;;;;7.87;5.23;;;14.30;99.90;16.20;97970.00;;;;5032779;28;20686;-90
2022/10/06 08:13:53;;;;;;;9.53;7.47;;;14.40;99.90;16.40;97984.00;;;;5029164;28;20201;-90
2022/10/06 08:16:42;;;;;;;6.30;5.50;;;14.50;99.90;16.50;97985.00;;;;5034877;28;20237;-90
2022/10/06 08:19:30;;;;;;;10.70;5.90;;;14.70;99.90;16.80;97984.00;;;;5021051;28;20198;-89
2022/10/06 08:22:20;;;;;;;12.60;4.73;;;14.80;99.90;16.90;97987.00;;;;5030803;28;20263;-90
2022/10/06 08:25:11;;;;;;;11.93;5.13;;;14.90;99.90;17.00;97991.00;;;;5034815;28;20213;-89
2022/10/06 08:28:00;;;;;;;8.53;5.67;;;15.00;99.90;17.00;97998.00;;;;5036104;28;20236;-90
2022/10/06 08:30:51;;;;;;;6.63;5.13;;;15.20;99.90;17.10;98001.00;;;;5044676;28;20202;-90
2022/10/06 08:33:41;;;;;;;9.70;5.53;;;15.30;99.90;17.40;98005.00;;;;5039940;28;20197;-90
2022/10/06 08:36:30;;;;;;;6.73;4.87;;;15.50;99.90;17.70;98008.00;;;;5027484;28;20213;-90
2022/10/06 08:39:20;;;;;;;6.63;5.33;;;15.60;99.90;17.70;98010.00;;;;5029341;28;20222;-90
2022/10/06 08:42:17;;;;;;;10.10;5.50;;;15.80;99.90;18.00;98016.00;;;;5037325;28;20267;-90
2022/10/06 08:45:14;;;;;;;9.03;4.87;;;15.90;99.90;18.20;98023.00;;;;5042670;28;20224;-90
2022/10/06 08:48:10;;;;;;;6.90;4.43;;;16.10;99.90;18.30;98012.00;;;;5043191;28;20252;-90
2022/10/06 08:51:08;;;;;;;6.70;4.30;;;16.20;99.90;18.50;98016.00;;;;5031146;28;20528;-90
2022/10/06 08:54:08;;;;;;;6.03;4.80;;;16.40;99.90;18.70;98013.00;;;;5037235;28;20205;-90
2022/10/06 08:57:07;;;;;;;7.90;4.70;;;16.60;99.90;18.80;98018.00;;;;5041656;28;20249;-90
2022/10/06 09:00:00;;;;;;;7.90;5.03;;;16.80;99.90;19.10;98022.00;;;;5031535;28;20255;-91
2022/10/06 09:02:50;;;;;;;4.80;4.30;;;17.00;99.90;19.30;98026.00;;;;5041135;28;20229;-90
2022/10/06 09:05:40;;;;;;;6.50;4.47;;;17.10;99.90;19.00;98015.00;;;;5022590;28;20194;-90
2022/10/06 09:08:50;;;;;;;7.43;5.13;;;17.30;99.90;19.80;98008.00;;;;5044547;28;20229;-90
2022/10/06 09:12:02;;;;;;;7.60;4.37;;;17.50;99.90;20.20;98016.00;;;;5040759;28;20202;-90
2022/10/06 09:15:08;;;;;;;6.80;4.70;;;17.80;99.90;20.10;98018.00;;;;5033174;28;20205;-90
2022/10/06 09:18:02;;;;;;;5.30;4.67;;;18.00;99.90;20.30;98018.00;;;;5046910;28;20256;-90
2022/10/06 09:20:57;;;;;;;6.90;4.90;;;18.20;99.90;20.70;98025.00;;;;5024626;28;20212;-90
2022/10/06 09:23:55;;;;;;;7.90;5.17;;;18.40;99.90;20.90;98024.00;;;;5028862;28;20201;-90
2022/10/06 09:26:47;;;;;;;5.57;4.17;;;18.60;99.90;21.40;98018.00;;;;5034759;28;20217;-90
2022/10/06 09:29:36;;;;;;;5.80;4.33;;;18.90;99.90;21.80;98024.00;;;;5037523;28;20208;-90
2022/10/06 09:32:28;;;;;;;4.50;3.77;;;19.20;99.90;21.20;98029.00;;;;5036208;28;20255;-90
2022/10/06 09:35:20;;;;;;;7.40;3.93;;;19.40;99.90;21.70;98012.00;;;;5025355;28;20201;-90
2022/10/06 09:38:11;;;;;;;7.43;4.43;;;19.60;99.90;22.20;98028.00;;;;5034512;28;20259;-91
2022/10/06 09:41:00;;;;;;;6.90;3.80;;;19.80;99.90;22.30;98015.00;;;;5058673;23;20235;-69
2022/10/06 09:43:56;;;;;;;6.20;3.93;;;20.10;99.90;22.80;98030.00;;;;5062470;28;20314;-70
2022/10/06 09:46:45;;;;;;;5.33;3.90;;;20.40;99.90;23.20;98027.00;;;;5049880;28;20201;-70
2022/10/06 09:49:33;;;;;;;6.87;4.13;;;20.70;99.90;23.40;98024.00;;;;5058012;28;20658;-70
2022/10/06 09:52:22;;;;;;;5.93;3.70;;;20.90;99.90;23.60;98024.00;;;;5067715;28;20309;-70
2022/10/06 09:55:14;;;;;;;5.97;3.27;;;21.10;99.90;23.70;98023.00;;;;5052873;28;20236;-70
2022/10/06 09:58:14;;;;;;;3.75;3.35;;;21.30;99.90;24.00;98016.00;;;;5056864;28;20260;-70
2022/10/06 10:01:06;;;;;;;5.33;3.13;;;21.60;99.90;24.00;98026.00;;;;5049206;28;20223;-69
2022/10/06 10:03:59;;;;;;;4.73;3.57;;;21.70;99.90;24.10;98030.00;;;;5048894;28;20224;-69
2022/10/06 10:07:15;;;;;;;5.70;2.93;;;21.90;99.90;24.60;98011.00;;;;5062194;28;20209;-69
2022/10/06 10:10:22;;;;;;;4.90;3.60;;;22.00;99.90;24.40;98009.00;;;;5062289;28;20204;-69
2022/10/06 10:13:23;;;;;;;4.13;2.73;;;22.30;99.90;25.00;98034.00;;;;5051935;28;20224;-69
2022/10/06 10:16:15;;;;;;;4.17;3.37;;;22.50;99.90;24.90;98043.00;;;;5050317;28;20242;-69
2022/10/06 10:19:09;;;;;;;4.67;3.50;;;22.60;99.90;24.20;98047.00;;;;5048716;28;20215;-69
2022/10/06 10:21:58;;;;;;;2.73;2.50;;;22.50;99.90;24.10;98039.00;;;;5048802;28;20734;-69
2022/10/06 10:25:01;;;;;;;4.47;2.70;;;22.30;99.90;23.80;98028.00;;;;5048169;28;20207;-70
2022/10/06 10:28:02;;;;;;;5.23;2.87;;;22.10;99.90;24.20;98027.00;;;;5048732;28;20673;-69
2022/10/06 10:31:02;;;;;;;4.57;2.40;;;22.10;99.90;24.90;98021.00;;;;5059635;28;20674;-69
2022/10/06 10:34:00;;;;;;;3.57;2.63;;;22.30;99.90;24.90;98040.00;;;;5066598;28;20223;-69
2022/10/06 10:36:58;;;;;;;3.97;2.70;;;22.50;99.90;24.60;98042.00;;;;5053162;28;20220;-70
2022/10/06 10:39:52;;;;;;;4.60;2.67;;;22.50;99.90;24.30;98042.00;;;;5052732;28;20200;-70
2022/10/06 10:42:47;;;;;;;3.47;2.80;;;22.50;99.90;24.30;98033.00;;;;5052183;28;20220;-70
2022/10/06 10:45:44;;;;;;;4.30;2.47;;;22.40;99.90;25.40;98023.00;;;;5060512;28;20204;-69
2022/10/06 10:48:39;;;;;;;3.10;2.50;;;22.60;99.90;25.20;98042.00;;;;5068230;28;20199;-69
2022/10/06 10:51:32;;;;;;;4.83;2.87;;;22.80;99.90;24.40;98041.00;;;;5062448;28;20197;-69
2022/10/06 10:54:29;;;;;;;3.83;2.53;;;22.80;99.90;24.20;98048.00;;;;5062791;28;20199;-69
2022/10/06 10:57:34;;;;;;;5.20;3.20;;;22.70;99.90;23.90;98044.00;;;;5064627;28;20271;-69
2022/10/06 11:00:27;;;;;;;2.53;2.33;;;22.50;99.90;23.60;98040.00;;;;5062340;28;20211;-70
2022/10/06 11:03:17;;;;;;;3.03;2.80;;;22.30;99.90;23.80;98035.00;;;;5068658;28;20215;-68
2022/10/06 11:06:42;;;;;;;3.43;3.13;;;22.20;99.90;24.20;98030.00;;;;5072369;28;20247;-69
2022/10/06 11:09:41;;;;;;;5.27;2.80;;;22.30;99.90;24.40;98035.00;;;;5065449;28;20229;-69
2022/10/06 11:12:54;;;;;;;3.13;2.53;;;22.40;99.90;24.00;98036.00;;;;5065881;28;20228;-69
2022/10/06 11:16:14;;;;;;;3.50;2.47;;;22.50;99.90;24.00;98033.00;;;;5060986;28;20197;-69
2022/10/06 11:19:23;;;;;;;3.93;2.40;;;22.40;99.90;25.00;98006.00;;;;5062342;28;20198;-69
2022/10/06 11:22:19;;;;;;;2.90;2.63;;;22.70;99.90;25.30;98005.00;;;;5068944;28;20307;-69
2022/10/06 11:25:19;;;;;;;3.90;2.33;;;23.10;99.90;25.30;98018.00;;;;5054144;28;20700;-69
2022/10/06 11:28:16;;;;;;;2.50;2.20;;;23.40;99.90;25.80;97992.00;;;;5054956;28;20209;-69
2022/10/06 11:31:18;;;;;;;2.40;1.90;;;23.60;99.90;25.60;98024.00;;;;5050666;28;20211;-69
2022/10/06 11:34:09;;;;;;;2.57;1.83;;;23.80;99.50;25.20;98034.00;;;;5053476;28;20222;-70
2022/10/06 11:37:08;;;;;;;3.20;2.00;;;23.90;95.90;25.10;98037.00;;;;5059402;28;20245;-70
2022/10/06 11:40:22;;;;;;;3.57;2.00;;;23.70;97.20;26.00;98024.00;;;;5064846;28;20210;-69
2022/10/06 11:43:20;;;;;;;2.17;1.77;;;23.70;97.50;25.70;98032.00;;;;5062946;28;20220;-69
2022/10/06 11:46:26;;;;;;;2.20;1.83;;;23.90;97.70;25.50;98011.00;;;;5057077;28;20196;-69
2022/10/06 11:49:50;;;;;;;4.10;1.93;;;24.00;98.10;26.70;97999.00;;;;5068839;28;20332;-69
2022/10/06 11:52:52;;;;;;;4.43;2.17;;;24.30;97.20;25.90;98017.00;;;;5064472;28;20662;-69
2022/10/06 11:55:41;;;;;;;2.30;1.70;;;24.40;93.90;25.40;98025.00;;;;5062483;28;20256;-69
2022/10/06 11:59:29;;;;;;;2.33;2.13;;;24.20;93.60;26.40;98007.00;;;;5058075;28;20270;-69
2022/10/06 12:02:37;;;;;;;1.53;1.37;;;24.10;91.80;27.00;97980.00;;;;5053010;28;20266;-69
2022/10/06 12:05:32;;;;;;;2.20;1.80;;;24.60;92.50;28.70;97994.00;;;;5052465;28;20217;-69
2022/10/06 12:08:44;;;;;;;2.38;1.58;;;25.30;92.80;27.90;97980.00;;;;5070797;28;20704;-69
2022/10/06 12:11:41;;;;;;;1.73;1.50;;;25.90;91.00;28.30;97986.00;;;;5070620;28;20249;-69
2022/10/06 12:14:40;;;;;;;1.87;1.77;;;26.20;88.80;28.20;97995.00;;;;5062871;28;20205;-69
2022/10/06 12:17:59;;;;;;;2.73;1.97;;;26.40;86.70;29.70;97981.00;;;;5062980;28;20235;-69
2022/10/06 12:21:05;;;;;;;1.95;1.77;;;26.80;84.00;31.10;97975.00;;;;5064268;28;20228;-69
2022/10/06 12:24:17;;;;;;;2.45;2.25;;;27.40;87.80;31.00;97981.00;;;;5055908;28;20228;-70
2022/10/06 12:27:29;;;;;;;2.20;2.00;;;28.10;84.40;32.00;97973.00;;;;5063514;28;20214;-69
2022/10/06 12:30:22;;;;;;;2.25;2.05;;;28.70;84.30;32.50;97986.00;;;;5067685;28;20227;-67
2022/10/06 12:33:19;;;;;;;2.95;2.28;;;29.30;80.50;32.10;97985.00;;;;5068595;28;20235;-70
2022/10/06 12:36:19;;;;;;;2.13;2.00;;;30.00;75.00;32.70;97978.00;;;;5060344;28;20235;-70
2022/10/06 12:39:22;;;;;;;1.98;1.70;;;29.90;72.80;33.40;97982.00;;;;5059039;28;20853;-69
2022/10/06 12:42:19;;;;;;;2.28;1.83;;;30.30;71.60;32.80;97983.00;;;;5062154;28;20224;-69
2022/10/06 12:45:16;;;;;;;2.63;1.73;;;30.40;67.40;33.80;97980.00;;;;5070438;28;20230;-67
2022/10/06 12:48:10;;;;;;;2.47;1.80;;;30.70;67.80;33.70;97981.00;;;;5055669;28;20267;-67
2022/10/06 12:51:05;;;;;;;1.73;1.63;;;31.10;65.70;34.40;97972.00;;;;5076819;28;20283;-67
2022/10/06 12:54:08;;;;;;;1.90;1.80;;;31.50;64.20;33.50;97978.00;;;;5066997;28;20227;-67
2022/10/06 12:57:00;;;;;;;2.53;2.10;;;31.80;59.60;34.30;97985.00;;;;5060641;28;20384;-68
2022/10/06 12:59:49;;;;;;;3.90;2.25;;;31.90;59.10;34.50;97985.00;;;;5062543;28;20230;-68
2022/10/06 13:02:38;;;;;;;2.03;1.77;;;32.00;59.50;33.90;97992.00;;;;5059043;28;20227;-68
2022/10/06 13:05:28;;;;;;;4.60;1.80;;;31.90;57.40;34.20;97984.00;;;;5064543;28;20193;-68
2022/10/06 13:08:23;;;;;;;2.97;2.03;;;31.80;57.80;33.70;97987.00;;;;5068431;28;20238;-68
2022/10/06 13:11:15;;;;;;;3.40;1.88;;;31.80;57.40;32.40;97991.00;;;;5062163;28;20640;-71